Terminal Aerodrome Forecast
Issued by NWS

Home | Current Version | Previous Version | Text Only | Print | Product List | Glossary On
Versions: 1 2 3 4 5 6 7 8 9 10 11 12 13 14 15 16 17 18 19 20 21
000
FTUS43 KSGF 181100
TAFJLN
TAF
KJLN 181120Z 1812/1912 21007KT P6SM VCTS SCT080CB OVC110
     FM181600 15006KT P6SM SCT015 OVC040
     FM181800 10006KT P6SM SCT030 BKN250
     FM190400 14005KT P6SM SCT015 SCT250
     FM191100 15005KT P6SM FEW005=

USA.gov is the U.S. government's official web portal to all federal, state and local government web resources and services.